createdAt,value
2019-03-02T00:02:25.576Z,99411.01
2019-03-02T00:04:55.822Z,99411.81
2019-03-02T00:07:26.500Z,99411.81
2019-03-02T00:09:57.195Z,99406.72
2019-03-02T00:12:28.855Z,99406.72
2019-03-02T00:15:00.359Z,99395.62
2019-03-02T00:17:31.193Z,99395.62
2019-03-02T00:20:02.038Z,99388.98
2019-03-02T00:22:32.307Z,99386.95
2019-03-02T00:25:04.357Z,99379.16
2019-03-02T00:27:35.043Z,99379.05
2019-03-02T00:30:06.104Z,99379.98
2019-03-02T00:32:37.140Z,99375.09
2019-03-02T00:35:08.253Z,99369.42
2019-03-02T00:37:39.012Z,99371.42
2019-03-02T00:40:09.589Z,99372.14
2019-03-02T00:42:40.243Z,99369.77
2019-03-02T00:45:14.125Z,99368.69
2019-03-02T00:47:43.694Z,99375.92
2019-03-02T00:50:14.571Z,99371.90
2019-03-02T00:52:45.086Z,99371.90
2019-03-02T00:55:15.534Z,99371.90
2019-03-02T00:57:46.000Z,99369.41
2019-03-02T01:00:16.824Z,99363.73
2019-03-02T01:02:47.777Z,99361.16
2019-03-02T01:05:18.339Z,99372.99
2019-03-02T01:07:49.036Z,99372.99
2019-03-02T01:10:22.630Z,99380.31
2019-03-02T01:12:51.734Z,99383.29
2019-03-02T01:15:22.287Z,99383.29
2019-03-02T01:17:53.314Z,99390.98
2019-03-02T01:20:24.945Z,99385.66
2019-03-02T01:22:55.905Z,99375.19
2019-03-02T01:25:26.425Z,99381.45
2019-03-02T01:27:56.975Z,99389.49
2019-03-02T01:30:29.948Z,99393.77
2019-03-02T01:32:59.826Z,99392.89
2019-03-02T01:35:30.569Z,99394.00
2019-03-02T01:38:01.107Z,99393.23
2019-03-02T01:40:31.652Z,99391.30
2019-03-02T01:43:04.933Z,99389.05
2019-03-02T01:45:34.622Z,99389.05
2019-03-02T01:48:05.018Z,99383.84
2019-03-02T01:50:35.432Z,99383.84
2019-03-02T01:53:09.902Z,99385.14
2019-03-02T01:55:38.993Z,99386.06
2019-03-02T01:58:09.474Z,99383.73
2019-03-02T02:00:40.065Z,99374.19
2019-03-02T02:03:12.097Z,99375.36
2019-03-02T02:05:43.144Z,99376.33
2019-03-02T02:08:14.082Z,99380.95
2019-03-02T02:10:44.577Z,99377.24
2019-03-02T02:13:14.938Z,99374.45
2019-03-02T02:15:45.510Z,99373.34
2019-03-02T02:18:16.033Z,99371.35
2019-03-02T02:20:46.811Z,99375.95
2019-03-02T02:23:19.209Z,99380.34
2019-03-02T02:25:49.713Z,99375.08
2019-03-02T02:28:20.222Z,99374.39
2019-03-02T02:30:50.796Z,99367.58
2019-03-02T02:33:21.595Z,99372.47
2019-03-02T02:35:52.555Z,99374.00
2019-03-02T02:38:23.613Z,99371.55
2019-03-02T02:40:54.366Z,99377.36
2019-03-02T02:43:25.077Z,99371.00
2019-03-02T02:45:55.988Z,99375.16
2019-03-02T02:48:31.206Z,99377.53
2019-03-02T02:50:59.341Z,99382.75
2019-03-02T02:53:33.314Z,99385.73
2019-03-02T02:56:03.995Z,99394.02
2019-03-02T02:58:34.446Z,99394.02
2019-03-02T03:01:07.035Z,99401.70
2019-03-02T03:03:39.262Z,99402.52
2019-03-02T03:06:10.108Z,99415.16
2019-03-02T03:09:09.632Z,99415.16
2019-03-02T03:11:43.723Z,99410.77
2019-03-02T03:14:10.165Z,99404.50
2019-03-02T03:16:40.696Z,99409.30
2019-03-02T03:19:11.656Z,99406.58
2019-03-02T03:21:42.109Z,99410.74
2019-03-02T03:24:12.926Z,99406.03
2019-03-02T03:26:45.410Z,99398.50
2019-03-02T03:29:15.980Z,99390.12
2019-03-02T03:31:46.798Z,99390.12
2019-03-02T03:34:29.226Z,99388.20
2019-03-02T03:36:50.606Z,99392.60
2019-03-02T03:39:21.342Z,99398.73
2019-03-02T03:41:52.408Z,99407.72
2019-03-02T03:44:26.392Z,99413.38
2019-03-02T03:46:56.065Z,99418.58
2019-03-02T03:49:29.997Z,99421.17
2019-03-02T03:52:04.055Z,99425.92
2019-03-02T03:54:34.540Z,99432.39
2019-03-02T03:57:05.117Z,99422.56
2019-03-02T03:59:35.748Z,99434.35
2019-03-02T04:02:06.974Z,99430.91
2019-03-02T04:04:37.999Z,99428.38
2019-03-02T04:07:08.745Z,99433.88
2019-03-02T04:09:42.885Z,99443.82
2019-03-02T04:12:12.204Z,99446.55
2019-03-02T04:14:42.811Z,99449.52
2019-03-02T04:17:13.284Z,99461.80
2019-03-02T04:19:43.785Z,99459.20
2019-03-02T04:22:15.231Z,99458.52
2019-03-02T04:24:46.281Z,99454.12
2019-03-02T04:27:17.222Z,99454.39
2019-03-02T04:29:49.869Z,99459.25
2019-03-02T04:32:27.083Z,99456.69
2019-03-02T04:34:54.307Z,99468.55
2019-03-02T04:37:25.402Z,99475.28
2019-03-02T04:39:57.446Z,99468.28
2019-03-02T04:42:28.480Z,99473.36
2019-03-02T04:45:01.609Z,99484.91
2019-03-02T04:47:31.286Z,99478.91
2019-03-02T04:50:01.994Z,99482.66
2019-03-02T04:52:32.795Z,99482.66
2019-03-02T04:55:03.563Z,99492.83
2019-03-02T04:57:36.182Z,99486.70
2019-03-02T05:00:09.248Z,99477.16
2019-03-02T05:02:40.219Z,99475.73
2019-03-02T05:05:11.207Z,99475.81
2019-03-02T05:07:41.974Z,99475.81
2019-03-02T05:10:13.215Z,99478.11
2019-03-02T05:12:43.749Z,99477.99
2019-03-02T05:15:17.672Z,99491.13
2019-03-02T05:17:48.315Z,99491.13
2019-03-02T05:20:20.125Z,99503.86
2019-03-02T05:22:54.833Z,99505.24
2019-03-02T05:25:24.403Z,99514.91
2019-03-02T05:27:56.615Z,99514.07
2019-03-02T05:30:30.462Z,99526.13
2019-03-02T05:33:00.119Z,99531.71
2019-03-02T05:35:30.563Z,99553.55
2019-03-02T05:38:01.302Z,99553.55
2019-03-02T05:40:31.926Z,99556.27
2019-03-02T05:43:02.616Z,99563.84
2019-03-02T05:45:33.256Z,99575.22
2019-03-02T05:48:04.873Z,99572.71
2019-03-02T05:50:35.555Z,99579.59
2019-03-02T05:53:05.948Z,99593.38
2019-03-02T05:55:36.747Z,99602.07
2019-03-02T05:58:07.196Z,99601.39
2019-03-02T06:00:38.944Z,99605.56
2019-03-02T06:03:09.825Z,99615.64
2019-03-02T06:05:40.375Z,99628.42
2019-03-02T06:08:11.003Z,99650.82
2019-03-02T06:10:41.471Z,99650.82
2019-03-02T06:13:12.153Z,99652.45
2019-03-02T06:15:43.265Z,99658.27
2019-03-02T06:18:14.832Z,99668.05
2019-03-02T06:20:45.416Z,99693.79
2019-03-02T06:23:15.820Z,99704.19
2019-03-02T06:25:46.653Z,99731.17
2019-03-02T06:28:19.625Z,99744.67
2019-03-02T06:30:50.076Z,99752.83
2019-03-02T06:33:33.174Z,99766.91
2019-03-02T06:36:08.792Z,99773.34
2019-03-02T06:38:38.277Z,99752.02
2019-03-02T06:41:08.612Z,99739.78
2019-03-02T06:43:39.214Z,99739.78
2019-03-02T06:46:09.464Z,99761.25
2019-03-02T06:48:41.491Z,99767.50
2019-03-02T06:51:13.078Z,99767.50
2019-03-02T06:53:43.665Z,99805.11
2019-03-02T06:56:15.743Z,99806.59
2019-03-02T06:58:46.848Z,99806.59
2019-03-02T07:01:20.828Z,99809.69
2019-03-02T07:03:49.401Z,99805.38
2019-03-02T07:06:20.458Z,99805.38
2019-03-02T07:08:50.777Z,99819.45
2019-03-02T07:11:21.203Z,99829.22
2019-03-02T07:13:53.507Z,99829.11
2019-03-02T07:16:24.516Z,99828.67
2019-03-02T07:19:17.608Z,99842.31
2019-03-02T07:21:48.414Z,99848.47
2019-03-02T07:24:19.075Z,99845.98
2019-03-02T07:26:51.598Z,99861.28
2019-03-02T07:29:22.168Z,99849.52
2019-03-02T07:31:53.173Z,99858.68
2019-03-02T07:34:28.579Z,99866.56
2019-03-02T07:36:59.164Z,99862.44
2019-03-02T07:39:32.726Z,99879.95
2019-03-02T07:42:03.168Z,99886.67
2019-03-02T07:44:33.621Z,99896.95
2019-03-02T07:47:04.675Z,99890.01
2019-03-02T07:49:35.197Z,99875.98
2019-03-02T07:52:06.147Z,99876.81
2019-03-02T07:54:38.804Z,99878.23
2019-03-02T07:57:10.035Z,99893.69
2019-03-02T07:59:40.350Z,99905.41
2019-03-02T08:02:11.519Z,99900.91
2019-03-02T08:04:42.315Z,99909.37
2019-03-02T08:07:12.802Z,99905.41
2019-03-02T08:09:43.339Z,99922.42
2019-03-02T08:12:13.881Z,99932.48
2019-03-02T08:14:47.768Z,99945.86
2019-03-02T08:17:18.205Z,99945.81
2019-03-02T08:19:51.737Z,99956.17
2019-03-02T08:22:24.863Z,99969.23
2019-03-02T08:24:57.976Z,99972.05
2019-03-02T08:27:34.697Z,99980.98
2019-03-02T08:30:07.583Z,99982.83
2019-03-02T08:32:42.456Z,99977.55
2019-03-02T08:35:17.206Z,99986.15
2019-03-02T08:37:51.177Z,99984.78
2019-03-02T08:40:24.638Z,100006.09
2019-03-02T08:42:58.061Z,100007.84
2019-03-02T08:45:32.394Z,100016.67
2019-03-02T08:48:05.942Z,100018.28
2019-03-02T08:50:40.297Z,100020.42
2019-03-02T08:53:12.828Z,100021.21
2019-03-02T08:55:43.640Z,100023.08
2019-03-02T08:58:14.344Z,100030.95
2019-03-02T09:00:45.044Z,100030.39
2019-03-02T09:03:15.463Z,100035.20
2019-03-02T09:05:51.422Z,100038.92
2019-03-02T09:08:18.403Z,100051.73
2019-03-02T09:10:50.133Z,100051.58
2019-03-02T09:13:20.964Z,100090.97
2019-03-02T09:15:51.707Z,100073.61
2019-03-02T09:18:22.811Z,100072.94
2019-03-02T09:20:53.336Z,100075.05
2019-03-02T09:23:24.337Z,100072.09
2019-03-02T09:25:54.888Z,100079.33
2019-03-02T09:28:25.236Z,100088.80
2019-03-02T09:30:58.757Z,100090.13
2019-03-02T09:33:31.531Z,100100.73
2019-03-02T09:36:01.949Z,100100.17
2019-03-02T09:38:32.470Z,100096.14
2019-03-02T09:41:03.017Z,100099.49
2019-03-02T09:43:33.441Z,100099.83
2019-03-02T09:46:04.054Z,100095.19
2019-03-02T09:48:35.142Z,100106.46
2019-03-02T09:51:06.152Z,100102.82
2019-03-02T09:53:36.683Z,100103.34
2019-03-02T09:56:07.212Z,100117.34
2019-03-02T09:58:38.296Z,100114.27
2019-03-02T10:01:08.902Z,100118.39
2019-03-02T10:03:40.412Z,100122.27
2019-03-02T10:06:11.351Z,100119.69
2019-03-02T10:08:42.470Z,100124.53
2019-03-02T10:11:13.131Z,100124.55
2019-03-02T10:13:43.783Z,100127.12
2019-03-02T10:16:14.974Z,100125.04
2019-03-02T10:18:49.824Z,100125.96
2019-03-02T10:21:18.742Z,100130.59
2019-03-02T10:23:49.183Z,100129.07
2019-03-02T10:26:20.921Z,100134.42
2019-03-02T10:28:51.592Z,100130.77
2019-03-02T10:31:23.598Z,100132.01
2019-03-02T10:33:54.243Z,100133.80
2019-03-02T10:36:25.692Z,100134.28
2019-03-02T10:38:57.537Z,100138.11
2019-03-02T10:41:28.117Z,100142.34
2019-03-02T10:43:58.907Z,100142.13
2019-03-02T10:46:29.750Z,100145.28
2019-03-02T10:49:00.281Z,100145.53
2019-03-02T10:51:33.992Z,100143.19
2019-03-02T10:54:03.029Z,100149.59
2019-03-02T10:56:33.363Z,100144.95
2019-03-02T10:59:04.134Z,100137.36
2019-03-02T11:01:35.038Z,100143.55
2019-03-02T11:04:24.504Z,100140.56
2019-03-02T11:07:13.690Z,100139.35
2019-03-02T11:09:56.802Z,100133.73
2019-03-02T11:12:52.216Z,100134.16
2019-03-02T11:15:34.623Z,100134.99
2019-03-02T11:18:23.793Z,100126.66
2019-03-02T11:21:01.287Z,100137.62
2019-03-02T11:23:54.720Z,100157.56
2019-03-02T11:26:39.514Z,100143.13
2019-03-02T11:29:50.582Z,100139.94
2019-03-02T11:32:27.691Z,100160.30
2019-03-02T11:35:16.753Z,100154.19
2019-03-02T11:38:08.822Z,100155.20
2019-03-02T11:41:04.877Z,100149.48
2019-03-02T11:43:42.284Z,100149.24
2019-03-02T11:46:40.811Z,100144.91
2019-03-02T11:49:34.863Z,100163.09
2019-03-02T11:52:35.019Z,100153.41
2019-03-02T11:55:15.994Z,100159.98
2019-03-02T11:58:03.835Z,100159.53
2019-03-02T12:01:00.674Z,100163.25
2019-03-02T12:03:41.932Z,100159.55
2019-03-02T12:06:37.904Z,100171.53
2019-03-02T12:09:31.740Z,100171.05
2019-03-02T12:12:36.172Z,100179.06
2019-03-02T12:15:20.657Z,100169.92
2019-03-02T12:18:12.793Z,100171.79
2019-03-02T12:21:04.647Z,100178.78
2019-03-02T12:23:57.243Z,100178.66
2019-03-02T12:26:49.681Z,100179.66
2019-03-02T12:29:46.030Z,100183.31
2019-03-02T12:32:32.334Z,100195.41
2019-03-02T12:35:15.441Z,100193.06
2019-03-02T12:38:11.677Z,100197.81
2019-03-02T12:40:59.925Z,100197.56
2019-03-02T12:43:45.445Z,100200.38
2019-03-02T12:46:33.551Z,100209.02
2019-03-02T12:49:34.816Z,100219.95
2019-03-02T12:52:15.801Z,100216.63
2019-03-02T12:55:10.680Z,100212.27
2019-03-02T12:58:00.705Z,100212.49
2019-03-02T13:00:48.917Z,100214.41
2019-03-02T13:03:44.227Z,100208.70
2019-03-02T13:06:20.685Z,100215.42
2019-03-02T13:09:08.640Z,100213.55
2019-03-02T13:11:50.531Z,100223.55
2019-03-02T13:14:38.886Z,100222.59
2019-03-02T13:17:22.569Z,100233.05
2019-03-02T13:20:05.326Z,100240.37
2019-03-02T13:22:54.990Z,100238.70
2019-03-02T13:25:44.379Z,100248.13
2019-03-02T13:28:36.966Z,100250.72
2019-03-02T13:31:31.013Z,100262.16
2019-03-02T13:34:20.154Z,100260.25
2019-03-02T13:37:02.745Z,100270.77
2019-03-02T13:39:51.117Z,100270.86
2019-03-02T13:42:37.748Z,100269.16
2019-03-02T13:45:46.484Z,100278.10
2019-03-02T13:48:25.698Z,100271.02
2019-03-02T13:51:14.165Z,100264.23
2019-03-02T13:54:06.713Z,100261.10
2019-03-02T13:57:04.845Z,100263.85
2019-03-02T13:59:53.396Z,100268.11
2019-03-02T14:02:42.452Z,100271.02
2019-03-02T14:05:29.320Z,100278.09
2019-03-02T14:08:26.596Z,100278.94
2019-03-02T14:11:25.169Z,100282.58
2019-03-02T14:14:08.174Z,100282.86
2019-03-02T14:16:55.820Z,100291.69
2019-03-02T14:19:48.669Z,100286.83
2019-03-02T14:22:38.043Z,100282.50
2019-03-02T14:25:30.824Z,100281.89
2019-03-02T14:28:20.686Z,100280.67
2019-03-02T14:31:19.903Z,100279.75
2019-03-02T14:34:07.273Z,100277.31
2019-03-02T14:37:14.814Z,100272.07
2019-03-02T14:40:04.187Z,100271.56
2019-03-02T14:42:46.179Z,100283.67
2019-03-02T14:45:35.657Z,100285.27
2019-03-02T14:48:35.382Z,100287.23
2019-03-02T14:51:24.535Z,100297.14
2019-03-02T14:54:08.987Z,100301.50
2019-03-02T14:56:59.295Z,100305.09
2019-03-02T14:59:52.550Z,100306.72
2019-03-02T15:02:52.440Z,100319.78
2019-03-02T15:05:40.206Z,100320.41
2019-03-02T15:08:21.125Z,100321.14
2019-03-02T15:11:07.731Z,100322.11
2019-03-02T15:14:06.732Z,100318.00
2019-03-02T15:16:43.497Z,100318.82
2019-03-02T15:19:56.169Z,100319.56
2019-03-02T15:22:48.772Z,100320.11
2019-03-02T15:25:40.095Z,100318.70
2019-03-02T15:28:33.902Z,100318.98
2019-03-02T15:31:26.621Z,100325.45
2019-03-02T15:34:18.761Z,100328.69
2019-03-02T15:37:07.015Z,100333.66
2019-03-02T15:39:54.996Z,100342.27
2019-03-02T15:42:47.482Z,100348.29
2019-03-02T15:45:26.282Z,100354.92
2019-03-02T15:48:04.131Z,100353.70
2019-03-02T15:50:44.191Z,100353.62
2019-03-02T15:53:25.444Z,100356.75
2019-03-02T15:56:04.913Z,100355.63
2019-03-02T15:58:55.770Z,100351.88
2019-03-02T16:01:33.453Z,100359.58
2019-03-02T16:04:24.714Z,100349.70
2019-03-02T16:07:20.551Z,100362.09
2019-03-02T16:10:13.199Z,100363.17
2019-03-02T16:12:53.344Z,100369.44
2019-03-02T16:15:49.900Z,100370.39
2019-03-02T16:18:39.693Z,100378.14
2019-03-02T16:21:21.222Z,100384.83
2019-03-02T16:24:19.898Z,100392.57
2019-03-02T16:27:15.050Z,100402.15
2019-03-02T16:30:10.159Z,100406.59
2019-03-02T16:33:06.699Z,100410.23
2019-03-02T16:36:15.121Z,100418.73
2019-03-02T16:39:02.813Z,100422.85
2019-03-02T16:41:50.581Z,100422.12
2019-03-02T16:44:40.574Z,100432.63
2019-03-02T16:47:28.818Z,100436.66
2019-03-02T16:50:16.886Z,100442.66
2019-03-02T16:53:08.812Z,100445.80
2019-03-02T16:55:58.478Z,100449.56
2019-03-02T16:59:05.999Z,100455.87
2019-03-02T17:01:45.949Z,100464.60
2019-03-02T17:04:46.093Z,100469.03
2019-03-02T17:07:38.634Z,100479.77
2019-03-02T17:10:34.706Z,100479.59
2019-03-02T17:13:45.429Z,100466.30
2019-03-02T17:16:28.411Z,100485.02
2019-03-02T17:19:24.358Z,100490.17
2019-03-02T17:22:18.050Z,100491.88
2019-03-02T17:25:22.450Z,100493.77
2019-03-02T17:28:23.698Z,100494.27
2019-03-02T17:31:20.392Z,100503.74
2019-03-02T17:34:15.463Z,100503.09
2019-03-02T17:37:15.461Z,100508.80
2019-03-02T17:40:05.722Z,100505.81
2019-03-02T17:42:49.223Z,100508.39
2019-03-02T17:45:38.481Z,100517.09
2019-03-02T17:48:28.665Z,100508.94
2019-03-02T17:51:17.830Z,100515.44
2019-03-02T17:54:07.632Z,100515.00
2019-03-02T17:57:05.776Z,100512.42
2019-03-02T18:00:05.909Z,100520.33
2019-03-02T18:02:52.217Z,100525.60
2019-03-02T18:05:47.620Z,100530.83
2019-03-02T18:08:48.551Z,100533.14
2019-03-02T18:11:50.342Z,100533.58
2019-03-02T18:14:30.488Z,100536.27
2019-03-02T18:17:19.065Z,100545.03
2019-03-02T18:19:50.374Z,100543.67
2019-03-02T18:22:21.036Z,100542.38
2019-03-02T18:24:51.652Z,100544.91
2019-03-02T18:27:21.946Z,100549.52
2019-03-02T18:29:53.816Z,100553.39
2019-03-02T18:32:24.407Z,100558.34
2019-03-02T18:34:56.791Z,100552.77
2019-03-02T18:37:30.553Z,100561.72
2019-03-02T18:40:03.055Z,100562.49
2019-03-02T18:42:34.359Z,100556.69
2019-03-02T18:45:04.988Z,100565.92
2019-03-02T18:47:35.542Z,100569.36
2019-03-02T18:50:12.801Z,100572.48
2019-03-02T18:53:08.139Z,100576.45
2019-03-02T18:55:38.702Z,100574.20
2019-03-02T18:58:10.038Z,100574.31
2019-03-02T19:00:44.293Z,100576.09
2019-03-02T19:03:14.984Z,100582.69
2019-03-02T19:05:50.243Z,100591.27
2019-03-02T19:08:21.447Z,100589.98
2019-03-02T19:10:51.989Z,100590.47
2019-03-02T19:13:22.956Z,100589.77
2019-03-02T19:15:55.143Z,100590.91
2019-03-02T19:18:25.651Z,100595.63
2019-03-02T19:20:58.223Z,100599.00
2019-03-02T19:23:28.548Z,100601.66
2019-03-02T19:26:00.664Z,100601.80
2019-03-02T19:28:31.077Z,100605.72
2019-03-02T19:31:01.957Z,100610.98
2019-03-02T19:33:32.658Z,100610.27
2019-03-02T19:36:04.198Z,100612.90
2019-03-02T19:38:34.674Z,100618.86
2019-03-02T19:41:05.560Z,100615.42
2019-03-02T19:43:36.433Z,100612.95
2019-03-02T19:46:07.357Z,100615.86
2019-03-02T19:48:37.892Z,100618.97
2019-03-02T19:51:08.590Z,100621.16
2019-03-02T19:53:39.264Z,100619.53
2019-03-02T19:56:09.617Z,100617.01
2019-03-02T19:58:40.081Z,100626.56
2019-03-02T20:01:10.680Z,100619.70
2019-03-02T20:03:41.373Z,100615.17
2019-03-02T20:06:11.996Z,100616.99
2019-03-02T20:08:42.306Z,100616.22
2019-03-02T20:11:13.436Z,100617.57
2019-03-02T20:13:43.855Z,100619.00
2019-03-02T20:16:14.815Z,100627.58
2019-03-02T20:18:45.757Z,100627.88
2019-03-02T20:21:16.827Z,100631.16
2019-03-02T20:23:47.349Z,100629.00
2019-03-02T20:26:18.121Z,100633.02
2019-03-02T20:28:48.660Z,100644.23
2019-03-02T20:31:19.367Z,100650.33
2019-03-02T20:33:49.982Z,100651.81
2019-03-02T20:36:20.963Z,100651.29
2019-03-02T20:38:52.857Z,100650.39
2019-03-02T20:41:23.475Z,100660.59
2019-03-02T20:43:54.578Z,100660.63
2019-03-02T20:46:25.006Z,100660.54
2019-03-02T20:48:56.584Z,100659.36
2019-03-02T20:51:27.608Z,100664.65
2019-03-02T20:53:57.925Z,100662.16
2019-03-02T20:56:29.071Z,100665.69
2019-03-02T20:58:59.737Z,100665.64
2019-03-02T21:01:30.351Z,100666.92
2019-03-02T21:04:02.610Z,100667.08
2019-03-02T21:06:33.183Z,100667.08
2019-03-02T21:09:04.570Z,100660.78
2019-03-02T21:11:36.605Z,100662.83
2019-03-02T21:14:07.189Z,100662.07
2019-03-02T21:16:37.572Z,100661.15
2019-03-02T21:19:08.802Z,100670.64
2019-03-02T21:21:39.175Z,100665.06
2019-03-02T21:24:09.605Z,100672.08
2019-03-02T21:26:41.159Z,100654.70
2019-03-02T21:29:11.940Z,100677.16
2019-03-02T21:31:42.454Z,100675.75
2019-03-02T21:34:13.118Z,100675.88
2019-03-02T21:36:43.875Z,100678.50
2019-03-02T21:39:14.864Z,100672.93
2019-03-02T21:41:45.295Z,100677.47
2019-03-02T21:44:15.697Z,100677.47
2019-03-02T21:46:46.786Z,100674.94
2019-03-02T21:49:17.525Z,100675.63
2019-03-02T21:51:48.422Z,100682.16
2019-03-02T21:54:19.159Z,100676.38
2019-03-02T21:56:52.004Z,100681.52
2019-03-02T21:59:22.789Z,100675.23
2019-03-02T22:01:53.696Z,100676.38
2019-03-02T22:04:24.487Z,100682.00
2019-03-02T22:06:55.610Z,100691.73
2019-03-02T22:09:26.319Z,100695.47
2019-03-02T22:11:56.855Z,100691.17
2019-03-02T22:14:31.238Z,100691.52
2019-03-02T22:17:03.349Z,100688.03
2019-03-02T22:19:33.760Z,100688.85
2019-03-02T22:22:04.736Z,100691.98
2019-03-02T22:24:35.121Z,100699.11
2019-03-02T22:27:05.562Z,100691.28
2019-03-02T22:29:36.057Z,100692.57
2019-03-02T22:32:06.522Z,100688.09
2019-03-02T22:34:36.959Z,100693.30
2019-03-02T22:37:07.734Z,100693.73
2019-03-02T22:39:38.390Z,100696.34
2019-03-02T22:42:08.946Z,100700.59
2019-03-02T22:44:39.534Z,100701.12
2019-03-02T22:47:10.695Z,100698.22
2019-03-02T22:49:41.969Z,100697.45
2019-03-02T22:52:12.830Z,100698.36
2019-03-02T22:54:43.474Z,100699.08
2019-03-02T22:57:13.988Z,100706.33
2019-03-02T23:00:21.148Z,100705.65
2019-03-02T23:02:49.224Z,100703.64
2019-03-02T23:05:20.020Z,100703.69
2019-03-02T23:07:50.659Z,100710.34
2019-03-02T23:10:21.087Z,100708.20
2019-03-02T23:12:52.067Z,100710.44
2019-03-02T23:15:23.007Z,100708.77
2019-03-02T23:17:53.755Z,100704.43
2019-03-02T23:20:24.395Z,100713.14
2019-03-02T23:22:54.992Z,100713.19
2019-03-02T23:25:25.540Z,100712.80
2019-03-02T23:27:56.074Z,100711.91
2019-03-02T23:30:26.674Z,100717.86
2019-03-02T23:32:57.430Z,100713.96
2019-03-02T23:35:27.885Z,100721.77
2019-03-02T23:37:58.690Z,100713.66
2019-03-02T23:40:29.438Z,100711.89
2019-03-02T23:43:00.128Z,100718.34
2019-03-02T23:45:31.131Z,100719.11
2019-03-02T23:48:02.154Z,100715.71
2019-03-02T23:50:32.765Z,100712.72
2019-03-02T23:53:03.656Z,100712.46
2019-03-02T23:55:34.074Z,100719.71
2019-03-02T23:58:06.086Z,100716.79
